Fort Irwin, California
Current Conditions -  °F | °C
As of 12:55 AM on Wednesday 28 Jan 2015 (Local Time) from KBYS Reporting Station
Scattered Clouds Scattered Clouds  
Wind Chill: 45°   Ceiling: Unl
Heat Index: 48°   Visibility: 10mi
Dew Point: 45°   Wind: 7mph
Humidity: 91%   Direction: 10°N
Pressure: 30.22"   Gusts: NA
Location:  35.12°N, 116.9°W
Report Text: KBYS 280855Z AUTO 01006KT 10SM SCT230 09/07 A3022 RMK AO2 SLP243 T00880074 54000 $
Loading
Personal Weather Stations






























Interactive Weather Map New forecast layout! Learn more

10-Day Weather Forecast

Advertisements
Track Severe Weather on mobile